sensor_id;sensor_type;location;lat;lon;timestamp;temperature;humidity
57843;DHT22;43673;51.058;3.734;2022-07-09T00:01:58;20.20;99.90
57843;DHT22;43673;51.058;3.734;2022-07-09T00:04:24;20.20;99.90
57843;DHT22;43673;51.058;3.734;2022-07-09T00:06:50;20.20;99.90
57843;DHT22;43673;51.058;3.734;2022-07-09T00:09:15;20.20;99.90
57843;DHT22;43673;51.058;3.734;2022-07-09T00:11:41;20.20;99.90
57843;DHT22;43673;51.058;3.734;2022-07-09T00:14:07;20.20;99.90
57843;DHT22;43673;51.058;3.734;2022-07-09T00:16:32;20.10;99.90
57843;DHT22;43673;51.058;3.734;2022-07-09T00:18:58;20.10;99.90
57843;DHT22;43673;51.058;3.734;2022-07-09T00:21:24;20.10;99.90
57843;DHT22;43673;51.058;3.734;2022-07-09T00:23:49;20.00;99.90
57843;DHT22;43673;51.058;3.734;2022-07-09T00:26:15;20.00;99.90
57843;DHT22;43673;51.058;3.734;2022-07-09T00:28:41;20.00;99.90
57843;DHT22;43673;51.058;3.734;2022-07-09T00:31:07;20.00;99.90
57843;DHT22;43673;51.058;3.734;2022-07-09T00:33:33;19.90;99.90
57843;DHT22;43673;51.058;3.734;2022-07-09T00:35:58;19.90;99.90
57843;DHT22;43673;51.058;3.734;2022-07-09T00:38:24;19.80;99.90
57843;DHT22;43673;51.058;3.734;2022-07-09T00:40:50;19.80;99.90
57843;DHT22;43673;51.058;3.734;2022-07-09T00:43:36;19.80;99.90
57843;DHT22;43673;51.058;3.734;2022-07-09T00:46:02;19.70;99.90
57843;DHT22;43673;51.058;3.734;2022-07-09T00:48:27;19.70;99.90
57843;DHT22;43673;51.058;3.734;2022-07-09T00:50:53;19.70;99.90
57843;DHT22;43673;51.058;3.734;2022-07-09T00:53:24;19.60;99.90
57843;DHT22;43673;51.058;3.734;2022-07-09T00:55:51;19.60;99.90
57843;DHT22;43673;51.058;3.734;2022-07-09T00:58:18;19.50;99.90
57843;DHT22;43673;51.058;3.734;2022-07-09T01:00:45;19.50;99.90
57843;DHT22;43673;51.058;3.734;2022-07-09T01:03:11;19.50;99.90
57843;DHT22;43673;51.058;3.734;2022-07-09T01:05:37;19.60;99.90
57843;DHT22;43673;51.058;3.734;2022-07-09T01:08:07;19.60;99.90
57843;DHT22;43673;51.058;3.734;2022-07-09T01:10:34;19.70;99.90
57843;DHT22;43673;51.058;3.734;2022-07-09T01:13:02;19.70;99.90
57843;DHT22;43673;51.058;3.734;2022-07-09T01:15:28;19.70;99.90
57843;DHT22;43673;51.058;3.734;2022-07-09T01:17:54;19.60;99.90
57843;DHT22;43673;51.058;3.734;2022-07-09T01:20:25;19.60;99.90
57843;DHT22;43673;51.058;3.734;2022-07-09T01:22:51;19.60;99.90
57843;DHT22;43673;51.058;3.734;2022-07-09T01:25:18;19.50;99.90
57843;DHT22;43673;51.058;3.734;2022-07-09T01:27:45;19.40;99.90
57843;DHT22;43673;51.058;3.734;2022-07-09T01:30:14;19.30;99.90
57843;DHT22;43673;51.058;3.734;2022-07-09T01:32:48;19.30;99.90
57843;DHT22;43673;51.058;3.734;2022-07-09T01:35:14;19.20;99.90
57843;DHT22;43673;51.058;3.734;2022-07-09T01:37:39;19.20;99.90
57843;DHT22;43673;51.058;3.734;2022-07-09T01:40:06;19.20;99.90
57843;DHT22;43673;51.058;3.734;2022-07-09T01:42:32;19.20;99.90
57843;DHT22;43673;51.058;3.734;2022-07-09T01:44:58;19.20;99.90
57843;DHT22;43673;51.058;3.734;2022-07-09T01:49:59;19.30;99.90
57843;DHT22;43673;51.058;3.734;2022-07-09T01:52:25;19.20;99.90
57843;DHT22;43673;51.058;3.734;2022-07-09T01:54:51;19.20;99.90
57843;DHT22;43673;51.058;3.734;2022-07-09T01:57:17;19.10;99.90
57843;DHT22;43673;51.058;3.734;2022-07-09T01:59:43;19.00;99.90
57843;DHT22;43673;51.058;3.734;2022-07-09T02:02:08;19.10;99.90
57843;DHT22;43673;51.058;3.734;2022-07-09T02:07:09;19.20;99.90
57843;DHT22;43673;51.058;3.734;2022-07-09T02:09:36;19.20;99.90
57843;DHT22;43673;51.058;3.734;2022-07-09T02:12:01;19.40;99.90
57843;DHT22;43673;51.058;3.734;2022-07-09T02:14:27;19.30;99.90
57843;DHT22;43673;51.058;3.734;2022-07-09T02:16:53;19.20;99.90
57843;DHT22;43673;51.058;3.734;2022-07-09T02:19:19;19.20;99.90
57843;DHT22;43673;51.058;3.734;2022-07-09T02:21:45;19.10;99.90
57843;DHT22;43673;51.058;3.734;2022-07-09T02:24:11;19.10;99.90
57843;DHT22;43673;51.058;3.734;2022-07-09T02:26:37;19.20;99.90
57843;DHT22;43673;51.058;3.734;2022-07-09T02:29:03;19.20;99.90
57843;DHT22;43673;51.058;3.734;2022-07-09T02:31:30;19.20;99.90
57843;DHT22;43673;51.058;3.734;2022-07-09T02:33:55;19.30;99.90
57843;DHT22;43673;51.058;3.734;2022-07-09T02:36:22;19.30;99.90
57843;DHT22;43673;51.058;3.734;2022-07-09T02:38:48;19.30;99.90
57843;DHT22;43673;51.058;3.734;2022-07-09T02:41:14;19.40;99.90
57843;DHT22;43673;51.058;3.734;2022-07-09T02:43:39;19.40;99.90
57843;DHT22;43673;51.058;3.734;2022-07-09T02:46:10;19.40;99.90
57843;DHT22;43673;51.058;3.734;2022-07-09T02:48:36;19.40;99.90
57843;DHT22;43673;51.058;3.734;2022-07-09T02:51:02;19.50;99.90
57843;DHT22;43673;51.058;3.734;2022-07-09T02:55:58;19.50;99.90
57843;DHT22;43673;51.058;3.734;2022-07-09T02:58:23;19.50;99.90
57843;DHT22;43673;51.058;3.734;2022-07-09T03:00:49;19.50;99.90
57843;DHT22;43673;51.058;3.734;2022-07-09T03:03:15;19.50;99.90
57843;DHT22;43673;51.058;3.734;2022-07-09T03:05:42;19.50;99.90
57843;DHT22;43673;51.058;3.734;2022-07-09T03:08:13;19.50;99.90
57843;DHT22;43673;51.058;3.734;2022-07-09T03:10:39;19.50;99.90
57843;DHT22;43673;51.058;3.734;2022-07-09T03:13:05;19.50;99.90
57843;DHT22;43673;51.058;3.734;2022-07-09T03:15:30;19.50;99.90
57843;DHT22;43673;51.058;3.734;2022-07-09T03:17:56;19.50;99.90
57843;DHT22;43673;51.058;3.734;2022-07-09T03:20:22;19.50;99.90
57843;DHT22;43673;51.058;3.734;2022-07-09T03:22:48;19.40;99.90
57843;DHT22;43673;51.058;3.734;2022-07-09T03:25:13;19.40;99.90
57843;DHT22;43673;51.058;3.734;2022-07-09T03:27:39;19.50;99.90
57843;DHT22;43673;51.058;3.734;2022-07-09T03:30:05;19.40;99.90
57843;DHT22;43673;51.058;3.734;2022-07-09T03:32:31;19.40;99.90
57843;DHT22;43673;51.058;3.734;2022-07-09T03:34:57;19.40;99.90
57843;DHT22;43673;51.058;3.734;2022-07-09T03:37:23;19.40;99.90
57843;DHT22;43673;51.058;3.734;2022-07-09T03:39:49;19.40;99.90
57843;DHT22;43673;51.058;3.734;2022-07-09T03:42:15;19.40;99.90
57843;DHT22;43673;51.058;3.734;2022-07-09T03:44:47;19.30;99.90
57843;DHT22;43673;51.058;3.734;2022-07-09T03:47:14;19.40;99.90
57843;DHT22;43673;51.058;3.734;2022-07-09T03:49:40;19.40;99.90
57843;DHT22;43673;51.058;3.734;2022-07-09T03:52:05;19.40;99.90
57843;DHT22;43673;51.058;3.734;2022-07-09T03:54:31;19.40;99.90
57843;DHT22;43673;51.058;3.734;2022-07-09T03:56:57;19.40;99.90
57843;DHT22;43673;51.058;3.734;2022-07-09T03:59:23;19.40;99.90
57843;DHT22;43673;51.058;3.734;2022-07-09T04:01:48;19.40;99.90
57843;DHT22;43673;51.058;3.734;2022-07-09T04:04:14;19.40;99.90
57843;DHT22;43673;51.058;3.734;2022-07-09T04:06:43;19.40;99.90
57843;DHT22;43673;51.058;3.734;2022-07-09T04:09:11;19.50;99.90
57843;DHT22;43673;51.058;3.734;2022-07-09T04:11:37;19.50;99.90
57843;DHT22;43673;51.058;3.734;2022-07-09T04:14:03;19.60;99.90
57843;DHT22;43673;51.058;3.734;2022-07-09T04:16:29;19.60;99.90
57843;DHT22;43673;51.058;3.734;2022-07-09T04:18:55;19.70;99.90
57843;DHT22;43673;51.058;3.734;2022-07-09T04:21:21;19.70;99.90
57843;DHT22;43673;51.058;3.734;2022-07-09T04:23:48;19.70;99.90
57843;DHT22;43673;51.058;3.734;2022-07-09T04:26:14;19.80;99.90
57843;DHT22;43673;51.058;3.734;2022-07-09T04:28:40;19.80;99.90
57843;DHT22;43673;51.058;3.734;2022-07-09T04:31:06;19.80;99.90
57843;DHT22;43673;51.058;3.734;2022-07-09T04:33:31;19.80;99.90
57843;DHT22;43673;51.058;3.734;2022-07-09T04:35:57;19.80;99.90
57843;DHT22;43673;51.058;3.734;2022-07-09T04:38:23;19.90;99.90
57843;DHT22;43673;51.058;3.734;2022-07-09T04:40:50;20.00;99.90
57843;DHT22;43673;51.058;3.734;2022-07-09T04:43:16;20.00;99.90
57843;DHT22;43673;51.058;3.734;2022-07-09T04:45:42;20.20;99.90
57843;DHT22;43673;51.058;3.734;2022-07-09T04:48:07;20.40;99.90
57843;DHT22;43673;51.058;3.734;2022-07-09T04:50:33;20.60;99.90
57843;DHT22;43673;51.058;3.734;2022-07-09T04:52:59;20.70;99.90
57843;DHT22;43673;51.058;3.734;2022-07-09T04:55:25;20.90;99.90
57843;DHT22;43673;51.058;3.734;2022-07-09T04:57:50;21.10;99.90
57843;DHT22;43673;51.058;3.734;2022-07-09T05:00:16;21.40;99.90
57843;DHT22;43673;51.058;3.734;2022-07-09T05:02:43;21.90;99.90
57843;DHT22;43673;51.058;3.734;2022-07-09T05:05:11;22.80;99.90
57843;DHT22;43673;51.058;3.734;2022-07-09T05:07:37;22.90;99.90
57843;DHT22;43673;51.058;3.734;2022-07-09T05:10:05;22.80;99.90
57843;DHT22;43673;51.058;3.734;2022-07-09T05:12:30;22.80;99.90
57843;DHT22;43673;51.058;3.734;2022-07-09T05:14:56;22.80;99.90
57843;DHT22;43673;51.058;3.734;2022-07-09T05:17:25;23.70;99.90
57843;DHT22;43673;51.058;3.734;2022-07-09T05:19:51;24.90;97.80
57843;DHT22;43673;51.058;3.734;2022-07-09T05:22:17;25.90;95.40
57843;DHT22;43673;51.058;3.734;2022-07-09T05:24:43;26.90;92.80
57843;DHT22;43673;51.058;3.734;2022-07-09T05:27:09;27.70;90.60
57843;DHT22;43673;51.058;3.734;2022-07-09T05:29:38;28.10;87.50
57843;DHT22;43673;51.058;3.734;2022-07-09T05:32:04;27.90;86.60
57843;DHT22;43673;51.058;3.734;2022-07-09T05:34:30;27.40;87.00
57843;DHT22;43673;51.058;3.734;2022-07-09T05:36:56;27.00;88.10
57843;DHT22;43673;51.058;3.734;2022-07-09T05:39:23;26.70;88.60
57843;DHT22;43673;51.058;3.734;2022-07-09T05:41:49;26.60;89.50
57843;DHT22;43673;51.058;3.734;2022-07-09T05:44:15;26.80;88.80
57843;DHT22;43673;51.058;3.734;2022-07-09T05:46:41;26.90;87.40
57843;DHT22;43673;51.058;3.734;2022-07-09T05:49:12;27.20;87.10
57843;DHT22;43673;51.058;3.734;2022-07-09T05:55:01;29.10;80.90
57843;DHT22;43673;51.058;3.734;2022-07-09T06:01:01;29.60;75.10
57843;DHT22;43673;51.058;3.734;2022-07-09T06:03:27;30.30;73.50
57843;DHT22;43673;51.058;3.734;2022-07-09T06:05:53;30.30;72.50
57843;DHT22;43673;51.058;3.734;2022-07-09T06:08:27;30.60;71.50
57843;DHT22;43673;51.058;3.734;2022-07-09T06:10:55;31.10;69.70
57843;DHT22;43673;51.058;3.734;2022-07-09T06:13:43;32.30;67.70
57843;DHT22;43673;51.058;3.734;2022-07-09T06:16:11;33.00;63.70
57843;DHT22;43673;51.058;3.734;2022-07-09T06:18:43;33.50;61.50
57843;DHT22;43673;51.058;3.734;2022-07-09T06:21:44;34.00;59.90
57843;DHT22;43673;51.058;3.734;2022-07-09T06:34:35;33.60;55.70
57843;DHT22;43673;51.058;3.734;2022-07-09T06:37:01;32.40;57.70
57843;DHT22;43673;51.058;3.734;2022-07-09T06:39:28;31.80;59.10
57843;DHT22;43673;51.058;3.734;2022-07-09T06:42:18;31.70;59.70
57843;DHT22;43673;51.058;3.734;2022-07-09T06:44:44;31.20;60.50
57843;DHT22;43673;51.058;3.734;2022-07-09T06:47:13;30.50;62.20
57843;DHT22;43673;51.058;3.734;2022-07-09T06:49:39;29.60;64.30
57843;DHT22;43673;51.058;3.734;2022-07-09T06:52:05;29.10;66.00
57843;DHT22;43673;51.058;3.734;2022-07-09T06:54:31;28.70;68.20
57843;DHT22;43673;51.058;3.734;2022-07-09T06:57:03;28.80;69.00
57843;DHT22;43673;51.058;3.734;2022-07-09T06:59:32;28.90;69.00
57843;DHT22;43673;51.058;3.734;2022-07-09T07:02:04;29.40;68.00
57843;DHT22;43673;51.058;3.734;2022-07-09T07:04:36;30.40;66.50
57843;DHT22;43673;51.058;3.734;2022-07-09T07:07:04;31.10;64.60
57843;DHT22;43673;51.058;3.734;2022-07-09T07:09:34;31.40;63.80
57843;DHT22;43673;51.058;3.734;2022-07-09T07:12:03;32.20;63.30
57843;DHT22;43673;51.058;3.734;2022-07-09T07:14:33;32.70;61.70
57843;DHT22;43673;51.058;3.734;2022-07-09T07:17:01;32.70;61.70
57843;DHT22;43673;51.058;3.734;2022-07-09T07:19:30;33.00;61.30
57843;DHT22;43673;51.058;3.734;2022-07-09T07:21:58;32.60;61.60
57843;DHT22;43673;51.058;3.734;2022-07-09T07:24:32;32.40;62.70
57843;DHT22;43673;51.058;3.734;2022-07-09T07:26:58;32.90;62.10
57843;DHT22;43673;51.058;3.734;2022-07-09T07:29:24;32.50;63.60
57843;DHT22;43673;51.058;3.734;2022-07-09T07:31:55;32.80;63.60
57843;DHT22;43673;51.058;3.734;2022-07-09T07:34:22;33.30;62.80
57843;DHT22;43673;51.058;3.734;2022-07-09T07:36:50;33.40;62.40
57843;DHT22;43673;51.058;3.734;2022-07-09T07:39:22;32.50;63.70
57843;DHT22;43673;51.058;3.734;2022-07-09T07:41:50;32.00;65.20
57843;DHT22;43673;51.058;3.734;2022-07-09T07:44:16;31.40;66.90
57843;DHT22;43673;51.058;3.734;2022-07-09T07:46:45;31.50;67.60
57843;DHT22;43673;51.058;3.734;2022-07-09T07:49:10;32.20;66.10
57843;DHT22;43673;51.058;3.734;2022-07-09T07:51:46;32.60;65.10
57843;DHT22;43673;51.058;3.734;2022-07-09T07:54:12;32.10;65.80
57843;DHT22;43673;51.058;3.734;2022-07-09T07:56:40;31.70;66.80
57843;DHT22;43673;51.058;3.734;2022-07-09T07:59:07;31.40;67.60
57843;DHT22;43673;51.058;3.734;2022-07-09T08:01:33;31.10;68.40
57843;DHT22;43673;51.058;3.734;2022-07-09T08:03:59;31.00;68.70
57843;DHT22;43673;51.058;3.734;2022-07-09T08:06:24;30.80;68.50
57843;DHT22;43673;51.058;3.734;2022-07-09T08:08:51;30.30;69.60
57843;DHT22;43673;51.058;3.734;2022-07-09T08:11:17;29.90;71.10
57843;DHT22;43673;51.058;3.734;2022-07-09T08:13:42;29.90;71.20
57843;DHT22;43673;51.058;3.734;2022-07-09T08:16:08;29.60;72.30
57843;DHT22;43673;51.058;3.734;2022-07-09T08:18:34;29.20;73.80
57843;DHT22;43673;51.058;3.734;2022-07-09T08:21:00;28.90;73.90
57843;DHT22;43673;51.058;3.734;2022-07-09T08:23:31;29.30;73.10
57843;DHT22;43673;51.058;3.734;2022-07-09T08:25:57;29.30;73.30
57843;DHT22;43673;51.058;3.734;2022-07-09T08:28:23;28.80;74.70
57843;DHT22;43673;51.058;3.734;2022-07-09T08:30:55;28.40;76.20
57843;DHT22;43673;51.058;3.734;2022-07-09T08:33:31;28.10;76.30
57843;DHT22;43673;51.058;3.734;2022-07-09T08:35:59;28.00;77.30
57843;DHT22;43673;51.058;3.734;2022-07-09T08:38:25;28.60;76.90
57843;DHT22;43673;51.058;3.734;2022-07-09T08:40:51;28.60;76.60
57843;DHT22;43673;51.058;3.734;2022-07-09T08:43:19;28.60;76.10
57843;DHT22;43673;51.058;3.734;2022-07-09T08:45:45;28.50;76.70
57843;DHT22;43673;51.058;3.734;2022-07-09T08:48:12;28.50;76.40
57843;DHT22;43673;51.058;3.734;2022-07-09T08:50:40;28.90;74.20
57843;DHT22;43673;51.058;3.734;2022-07-09T08:53:07;29.50;73.20
57843;DHT22;43673;51.058;3.734;2022-07-09T08:55:34;29.20;73.70
57843;DHT22;43673;51.058;3.734;2022-07-09T08:58:04;28.70;75.00
57843;DHT22;43673;51.058;3.734;2022-07-09T09:00:29;28.20;76.20
57843;DHT22;43673;51.058;3.734;2022-07-09T09:02:57;27.90;75.70
57843;DHT22;43673;51.058;3.734;2022-07-09T09:05:22;28.00;75.70
57843;DHT22;43673;51.058;3.734;2022-07-09T09:07:48;28.70;72.90
57843;DHT22;43673;51.058;3.734;2022-07-09T09:10:24;29.70;70.20
57843;DHT22;43673;51.058;3.734;2022-07-09T09:13:00;31.90;65.40
57843;DHT22;43673;51.058;3.734;2022-07-09T09:15:29;32.80;60.90
57843;DHT22;43673;51.058;3.734;2022-07-09T09:17:56;32.00;62.30
57843;DHT22;43673;51.058;3.734;2022-07-09T09:20:22;31.80;62.80
57843;DHT22;43673;51.058;3.734;2022-07-09T09:22:53;31.30;63.10
57843;DHT22;43673;51.058;3.734;2022-07-09T09:25:24;30.70;63.30
57843;DHT22;43673;51.058;3.734;2022-07-09T09:27:58;31.50;63.10
57843;DHT22;43673;51.058;3.734;2022-07-09T09:30:29;31.70;62.30
57843;DHT22;43673;51.058;3.734;2022-07-09T09:33:00;31.90;62.10
57843;DHT22;43673;51.058;3.734;2022-07-09T09:35:34;32.80;60.80
57843;DHT22;43673;51.058;3.734;2022-07-09T09:38:00;32.90;61.00
57843;DHT22;43673;51.058;3.734;2022-07-09T09:40:26;32.80;60.20
57843;DHT22;43673;51.058;3.734;2022-07-09T09:42:52;31.80;61.60
57843;DHT22;43673;51.058;3.734;2022-07-09T09:45:24;31.00;63.30
57843;DHT22;43673;51.058;3.734;2022-07-09T09:47:51;31.60;62.80
57843;DHT22;43673;51.058;3.734;2022-07-09T09:50:21;32.20;61.10
57843;DHT22;43673;51.058;3.734;2022-07-09T09:52:49;31.80;61.00
57843;DHT22;43673;51.058;3.734;2022-07-09T09:55:17;31.40;61.80
57843;DHT22;43673;51.058;3.734;2022-07-09T09:57:46;31.80;61.10
57843;DHT22;43673;51.058;3.734;2022-07-09T10:00:19;32.10;60.30
57843;DHT22;43673;51.058;3.734;2022-07-09T10:02:46;32.80;59.40
57843;DHT22;43673;51.058;3.734;2022-07-09T10:05:14;32.50;58.90
57843;DHT22;43673;51.058;3.734;2022-07-09T10:07:44;31.40;60.00
57843;DHT22;43673;51.058;3.734;2022-07-09T10:10:20;31.00;61.30
57843;DHT22;43673;51.058;3.734;2022-07-09T10:12:52;31.60;60.50
57843;DHT22;43673;51.058;3.734;2022-07-09T10:15:23;31.30;60.60
57843;DHT22;43673;51.058;3.734;2022-07-09T10:17:49;30.70;61.50
57843;DHT22;43673;51.058;3.734;2022-07-09T10:20:15;31.20;61.40
57843;DHT22;43673;51.058;3.734;2022-07-09T10:22:43;31.10;60.90
57843;DHT22;43673;51.058;3.734;2022-07-09T10:25:11;30.90;60.80
57843;DHT22;43673;51.058;3.734;2022-07-09T10:27:48;31.20;61.40
57843;DHT22;43673;51.058;3.734;2022-07-09T10:30:25;31.80;59.00
57843;DHT22;43673;51.058;3.734;2022-07-09T10:33:08;31.60;59.20
57843;DHT22;43673;51.058;3.734;2022-07-09T10:35:48;31.80;59.20
57843;DHT22;43673;51.058;3.734;2022-07-09T10:38:16;31.60;59.20
57843;DHT22;43673;51.058;3.734;2022-07-09T10:40:46;31.20;58.80
57843;DHT22;43673;51.058;3.734;2022-07-09T10:43:13;30.80;59.50
57843;DHT22;43673;51.058;3.734;2022-07-09T10:45:42;30.10;61.20
57843;DHT22;43673;51.058;3.734;2022-07-09T10:48:11;29.70;62.00
57843;DHT22;43673;51.058;3.734;2022-07-09T10:50:39;29.70;62.20
57843;DHT22;43673;51.058;3.734;2022-07-09T10:53:05;29.40;62.90
57843;DHT22;43673;51.058;3.734;2022-07-09T10:55:31;29.00;63.80
57843;DHT22;43673;51.058;3.734;2022-07-09T10:57:57;28.60;64.50
57843;DHT22;43673;51.058;3.734;2022-07-09T11:00:25;28.30;65.40
57843;DHT22;43673;51.058;3.734;2022-07-09T11:02:56;28.00;65.50
57843;DHT22;43673;51.058;3.734;2022-07-09T11:05:23;27.90;66.30
57843;DHT22;43673;51.058;3.734;2022-07-09T11:07:59;27.70;66.60
57843;DHT22;43673;51.058;3.734;2022-07-09T11:10:26;27.50;67.30
57843;DHT22;43673;51.058;3.734;2022-07-09T11:12:54;27.40;68.00
57843;DHT22;43673;51.058;3.734;2022-07-09T11:15:21;27.10;67.70
57843;DHT22;43673;51.058;3.734;2022-07-09T11:18:09;26.70;68.90
57843;DHT22;43673;51.058;3.734;2022-07-09T11:20:47;26.70;68.80
57843;DHT22;43673;51.058;3.734;2022-07-09T11:23:15;26.90;68.30
57843;DHT22;43673;51.058;3.734;2022-07-09T11:25:44;27.10;68.00
57843;DHT22;43673;51.058;3.734;2022-07-09T11:28:23;27.10;68.20
57843;DHT22;43673;51.058;3.734;2022-07-09T11:31:05;27.20;67.90
57843;DHT22;43673;51.058;3.734;2022-07-09T11:33:31;27.10;68.60
57843;DHT22;43673;51.058;3.734;2022-07-09T11:36:17;26.70;70.00
57843;DHT22;43673;51.058;3.734;2022-07-09T11:38:50;26.30;71.10
57843;DHT22;43673;51.058;3.734;2022-07-09T11:43:51;25.70;71.90
57843;DHT22;43673;51.058;3.734;2022-07-09T11:46:20;25.90;71.50
57843;DHT22;43673;51.058;3.734;2022-07-09T11:48:54;25.90;71.00
57843;DHT22;43673;51.058;3.734;2022-07-09T11:51:34;25.90;70.70
57843;DHT22;43673;51.058;3.734;2022-07-09T11:54:03;26.00;71.40
57843;DHT22;43673;51.058;3.734;2022-07-09T11:56:42;26.10;70.20
57843;DHT22;43673;51.058;3.734;2022-07-09T11:59:11;26.20;69.70
57843;DHT22;43673;51.058;3.734;2022-07-09T12:01:37;26.40;70.00
57843;DHT22;43673;51.058;3.734;2022-07-09T12:04:06;26.40;69.70
57843;DHT22;43673;51.058;3.734;2022-07-09T12:07:09;26.40;69.20
57843;DHT22;43673;51.058;3.734;2022-07-09T12:09:35;26.50;69.70
57843;DHT22;43673;51.058;3.734;2022-07-09T12:12:00;26.60;69.60
57843;DHT22;43673;51.058;3.734;2022-07-09T12:14:27;26.70;69.00
57843;DHT22;43673;51.058;3.734;2022-07-09T12:16:52;26.70;68.90
57843;DHT22;43673;51.058;3.734;2022-07-09T12:19:18;26.50;69.20
57843;DHT22;43673;51.058;3.734;2022-07-09T12:21:44;26.30;69.90
57843;DHT22;43673;51.058;3.734;2022-07-09T12:24:10;25.80;71.60
57843;DHT22;43673;51.058;3.734;2022-07-09T12:26:36;25.40;72.40
57843;DHT22;43673;51.058;3.734;2022-07-09T12:29:02;25.10;72.10
57843;DHT22;43673;51.058;3.734;2022-07-09T12:31:28;25.00;72.40
57843;DHT22;43673;51.058;3.734;2022-07-09T12:33:54;25.20;72.20
57843;DHT22;43673;51.058;3.734;2022-07-09T12:36:20;25.40;70.60
57843;DHT22;43673;51.058;3.734;2022-07-09T12:38:54;25.40;69.70
57843;DHT22;43673;51.058;3.734;2022-07-09T12:41:19;25.50;69.40
57843;DHT22;43673;51.058;3.734;2022-07-09T12:43:45;25.60;68.50
57843;DHT22;43673;51.058;3.734;2022-07-09T12:46:11;25.70;68.80
57843;DHT22;43673;51.058;3.734;2022-07-09T12:48:37;25.90;68.10
57843;DHT22;43673;51.058;3.734;2022-07-09T12:51:03;25.80;68.00
57843;DHT22;43673;51.058;3.734;2022-07-09T12:53:29;25.90;67.70
57843;DHT22;43673;51.058;3.734;2022-07-09T12:55:54;25.70;68.60
57843;DHT22;43673;51.058;3.734;2022-07-09T12:58:20;25.60;69.70
57843;DHT22;43673;51.058;3.734;2022-07-09T13:00:46;25.50;69.60
57843;DHT22;43673;51.058;3.734;2022-07-09T13:03:12;25.40;70.20
57843;DHT22;43673;51.058;3.734;2022-07-09T13:05:37;25.40;71.10
57843;DHT22;43673;51.058;3.734;2022-07-09T13:08:04;25.60;70.50
57843;DHT22;43673;51.058;3.734;2022-07-09T13:10:42;25.60;70.10
57843;DHT22;43673;51.058;3.734;2022-07-09T13:13:08;25.50;68.30
57843;DHT22;43673;51.058;3.734;2022-07-09T13:15:34;25.20;67.90
57843;DHT22;43673;51.058;3.734;2022-07-09T13:17:59;24.90;68.00
57843;DHT22;43673;51.058;3.734;2022-07-09T13:20:25;24.80;67.50
57843;DHT22;43673;51.058;3.734;2022-07-09T13:22:51;24.50;68.40
57843;DHT22;43673;51.058;3.734;2022-07-09T13:25:16;24.60;68.70
57843;DHT22;43673;51.058;3.734;2022-07-09T13:27:42;24.90;68.70
57843;DHT22;43673;51.058;3.734;2022-07-09T13:30:08;24.80;68.00
57843;DHT22;43673;51.058;3.734;2022-07-09T13:32:34;24.60;68.40
57843;DHT22;43673;51.058;3.734;2022-07-09T13:35:00;24.50;68.50
57843;DHT22;43673;51.058;3.734;2022-07-09T13:37:27;24.70;69.30
57843;DHT22;43673;51.058;3.734;2022-07-09T13:39:57;24.50;68.70
57843;DHT22;43673;51.058;3.734;2022-07-09T13:42:22;24.40;69.50
57843;DHT22;43673;51.058;3.734;2022-07-09T13:44:48;24.40;70.50
57843;DHT22;43673;51.058;3.734;2022-07-09T13:47:17;24.60;70.30
57843;DHT22;43673;51.058;3.734;2022-07-09T13:49:43;24.50;69.40
57843;DHT22;43673;51.058;3.734;2022-07-09T13:52:09;24.50;69.70
57843;DHT22;43673;51.058;3.734;2022-07-09T13:54:35;24.50;69.30
57843;DHT22;43673;51.058;3.734;2022-07-09T13:57:02;24.50;69.20
57843;DHT22;43673;51.058;3.734;2022-07-09T13:59:27;24.70;67.60
57843;DHT22;43673;51.058;3.734;2022-07-09T14:01:53;24.60;68.80
57843;DHT22;43673;51.058;3.734;2022-07-09T14:04:20;24.60;68.50
57843;DHT22;43673;51.058;3.734;2022-07-09T14:06:46;24.60;69.20
57843;DHT22;43673;51.058;3.734;2022-07-09T14:09:12;24.60;69.10
57843;DHT22;43673;51.058;3.734;2022-07-09T14:11:38;24.70;68.40
57843;DHT22;43673;51.058;3.734;2022-07-09T14:14:04;24.80;67.80
57843;DHT22;43673;51.058;3.734;2022-07-09T14:16:30;24.90;67.90
57843;DHT22;43673;51.058;3.734;2022-07-09T14:18:57;25.30;67.60
57843;DHT22;43673;51.058;3.734;2022-07-09T14:21:22;25.60;67.00
57843;DHT22;43673;51.058;3.734;2022-07-09T14:23:48;25.40;67.40
57843;DHT22;43673;51.058;3.734;2022-07-09T14:26:17;25.20;67.60
57843;DHT22;43673;51.058;3.734;2022-07-09T14:28:43;24.80;68.00
57843;DHT22;43673;51.058;3.734;2022-07-09T14:31:09;24.50;67.80
57843;DHT22;43673;51.058;3.734;2022-07-09T14:33:34;24.30;69.40
57843;DHT22;43673;51.058;3.734;2022-07-09T14:36:00;24.20;70.00
57843;DHT22;43673;51.058;3.734;2022-07-09T14:38:26;24.00;70.00
57843;DHT22;43673;51.058;3.734;2022-07-09T14:40:52;24.10;71.00
57843;DHT22;43673;51.058;3.734;2022-07-09T14:43:18;24.30;70.70
57843;DHT22;43673;51.058;3.734;2022-07-09T14:45:44;24.50;70.10
57843;DHT22;43673;51.058;3.734;2022-07-09T14:48:09;24.50;70.50
57843;DHT22;43673;51.058;3.734;2022-07-09T14:50:36;24.70;69.50
57843;DHT22;43673;51.058;3.734;2022-07-09T14:53:01;24.70;69.10
57843;DHT22;43673;51.058;3.734;2022-07-09T14:55:28;24.70;69.20
57843;DHT22;43673;51.058;3.734;2022-07-09T14:57:54;24.60;70.10
57843;DHT22;43673;51.058;3.734;2022-07-09T15:00:20;24.70;70.80
57843;DHT22;43673;51.058;3.734;2022-07-09T15:02:46;24.90;70.50
57843;DHT22;43673;51.058;3.734;2022-07-09T15:05:12;25.10;70.00
57843;DHT22;43673;51.058;3.734;2022-07-09T15:07:38;24.90;70.00
57843;DHT22;43673;51.058;3.734;2022-07-09T15:10:05;24.80;70.80
57843;DHT22;43673;51.058;3.734;2022-07-09T15:12:31;24.90;70.90
57843;DHT22;43673;51.058;3.734;2022-07-09T15:14:58;24.70;71.70
57843;DHT22;43673;51.058;3.734;2022-07-09T15:17:24;24.50;71.80
57843;DHT22;43673;51.058;3.734;2022-07-09T15:19:50;24.40;73.10
57843;DHT22;43673;51.058;3.734;2022-07-09T15:22:16;24.40;73.60
57843;DHT22;43673;51.058;3.734;2022-07-09T15:24:42;24.60;72.60
57843;DHT22;43673;51.058;3.734;2022-07-09T15:27:08;24.70;72.20
57843;DHT22;43673;51.058;3.734;2022-07-09T15:29:33;24.50;72.70
57843;DHT22;43673;51.058;3.734;2022-07-09T15:32:00;24.60;72.00
57843;DHT22;43673;51.058;3.734;2022-07-09T15:34:27;24.60;71.70
57843;DHT22;43673;51.058;3.734;2022-07-09T15:36:52;24.60;72.10
57843;DHT22;43673;51.058;3.734;2022-07-09T15:49:33;24.30;74.80
57843;DHT22;43673;51.058;3.734;2022-07-09T15:51:59;24.20;74.80
57843;DHT22;43673;51.058;3.734;2022-07-09T15:54:24;24.40;75.30
57843;DHT22;43673;51.058;3.734;2022-07-09T15:56:51;24.40;74.40
57843;DHT22;43673;51.058;3.734;2022-07-09T15:59:17;24.40;74.40
57843;DHT22;43673;51.058;3.734;2022-07-09T16:01:44;24.30;74.30
57843;DHT22;43673;51.058;3.734;2022-07-09T16:04:09;24.10;74.10
57843;DHT22;43673;51.058;3.734;2022-07-09T16:06:35;23.90;73.60
57843;DHT22;43673;51.058;3.734;2022-07-09T16:09:02;23.60;74.80
57843;DHT22;43673;51.058;3.734;2022-07-09T16:11:28;23.50;75.80